createdAt,value
2022-09-10T00:01:23.574Z,101094.13
2022-09-10T00:03:51.070Z,101091.44
2022-09-10T00:06:19.182Z,101092.69
2022-09-10T00:08:46.910Z,101091.13
2022-09-10T00:11:15.026Z,101089.22
2022-09-10T00:13:42.306Z,101086.56
2022-09-10T00:16:12.267Z,101087.34
2022-09-10T00:18:39.705Z,101079.75
2022-09-10T00:21:10.313Z,101084.00
2022-09-10T00:23:37.691Z,101080.53
2022-09-10T00:26:25.991Z,101078.97
2022-09-10T00:28:54.544Z,101080.84
2022-09-10T00:31:22.792Z,101083.22
2022-09-10T00:33:50.870Z,101088.28
2022-09-10T00:36:23.978Z,101079.47
2022-09-10T00:38:52.190Z,101089.06
2022-09-10T00:41:21.481Z,101094.13
2022-09-10T00:43:48.811Z,101093.81
2022-09-10T00:46:24.286Z,101091.59
2022-09-10T00:48:52.781Z,101093.47
2022-09-10T00:51:19.928Z,101090.00
2022-09-10T00:53:46.768Z,101095.06
2022-09-10T00:56:14.347Z,101087.34
2022-09-10T00:58:43.291Z,101092.22
2022-09-10T01:01:10.284Z,101089.53
2022-09-10T01:03:37.745Z,101084.00
2022-09-10T01:06:05.444Z,101093.66
2022-09-10T01:08:32.060Z,101096.03
2022-09-10T01:11:17.285Z,101091.28
2022-09-10T01:14:01.505Z,101091.56
2022-09-10T01:16:27.984Z,101094.59
2022-09-10T01:19:13.243Z,101085.78
2022-09-10T01:21:52.589Z,101087.63
2022-09-10T01:24:51.111Z,101078.81
2022-09-10T01:27:23.459Z,101083.09
2022-09-10T01:29:59.080Z,101079.94
2022-09-10T01:32:35.314Z,101088.25
2022-09-10T01:35:14.957Z,101084.78
2022-09-10T01:37:47.434Z,101081.63
2022-09-10T01:40:15.448Z,101088.38
2022-09-10T01:42:42.422Z,101096.44
2022-09-10T01:45:13.501Z,101095.66
2022-09-10T01:47:40.168Z,101095.66
2022-09-10T01:50:51.553Z,101098.34
2022-09-10T01:53:39.799Z,101102.13
2022-09-10T01:56:24.736Z,101095.19
2022-09-10T01:58:54.659Z,101098.16
2022-09-10T02:01:28.581Z,101092.81
2022-09-10T02:04:04.439Z,101086.97
2022-09-10T02:06:36.377Z,101086.19
2022-09-10T02:09:03.446Z,101086.19
2022-09-10T02:11:31.507Z,101086.50
2022-09-10T02:13:59.409Z,101079.56
2022-09-10T02:16:35.903Z,101073.91
2022-09-10T02:19:04.058Z,101081.94
2022-09-10T02:21:32.102Z,101078.91
2022-09-10T02:24:05.931Z,101086.66
2022-09-10T02:26:40.029Z,101082.06
2022-09-10T02:29:07.671Z,101077.06
2022-09-10T02:31:34.448Z,101077.06
2022-09-10T02:34:03.230Z,101073.25
2022-09-10T02:36:31.741Z,101069.78
2022-09-10T02:38:59.400Z,101073.25
2022-09-10T02:41:26.653Z,101083.97
2022-09-10T02:43:53.306Z,101088.25
2022-09-10T02:46:20.268Z,101078.63
2022-09-10T02:48:46.943Z,101085.56
2022-09-10T02:51:13.467Z,101086.34
2022-09-10T02:53:40.141Z,101076.41
2022-09-10T02:56:07.836Z,101082.88
2022-09-10T02:58:34.513Z,101085.22
2022-09-10T03:01:15.021Z,101084.94
2022-09-10T03:03:41.852Z,101079.25
2022-09-10T03:06:09.135Z,101077.38
2022-09-10T03:08:35.977Z,101082.41
2022-09-10T03:11:03.347Z,101082.13
2022-09-10T03:13:29.814Z,101074.06
2022-09-10T03:15:58.902Z,101071.09
2022-09-10T03:18:27.815Z,101071.09
2022-09-10T03:20:54.316Z,101073.75
2022-09-10T03:23:20.843Z,101063.03
2022-09-10T03:25:49.762Z,101072.69
2022-09-10T03:28:21.785Z,101072.69
2022-09-10T03:30:48.401Z,101064.63
2022-09-10T03:33:15.152Z,101067.31
2022-09-10T03:35:41.689Z,101068.09
2022-09-10T03:38:08.156Z,101062.72
2022-09-10T03:40:34.710Z,101058.97
2022-09-10T03:43:02.913Z,101058.16
2022-09-10T03:45:29.403Z,101061.63
2022-09-10T03:47:55.962Z,101058.16
2022-09-10T03:50:22.648Z,101060.03
2022-09-10T03:52:50.162Z,101050.09
2022-09-10T03:55:18.140Z,101051.34
2022-09-10T03:57:45.713Z,101059.41
2022-09-10T04:00:12.615Z,101057.53
2022-09-10T04:02:41.494Z,101053.72
2022-09-10T04:05:08.946Z,101057.53
2022-09-10T04:07:36.693Z,101055.63
2022-09-10T04:10:04.019Z,101065.25
2022-09-10T04:12:30.880Z,101064.75
2022-09-10T04:14:57.573Z,101057.53
2022-09-10T04:17:25.550Z,101051.06
2022-09-10T04:19:52.072Z,101055.63
2022-09-10T04:22:18.584Z,101056.09
2022-09-10T04:24:45.280Z,101056.72
2022-09-10T04:27:11.949Z,101061.78
2022-09-10T04:29:38.731Z,101050.28
2022-09-10T04:32:05.785Z,101053.25
2022-09-10T04:34:32.476Z,101057.84
2022-09-10T04:36:58.949Z,101048.22
2022-09-10T04:39:25.445Z,101049.31
2022-09-10T04:41:51.957Z,101052.31
2022-09-10T04:44:20.034Z,101056.59
2022-09-10T04:46:47.822Z,101061.16
2022-09-10T04:49:14.441Z,101057.97
2022-09-10T04:51:41.160Z,101060.34
2022-09-10T04:54:07.840Z,101059.56
2022-09-10T04:56:34.715Z,101059.56
2022-09-10T04:59:04.416Z,101063.03
2022-09-10T05:01:31.335Z,101061.94
2022-09-10T05:03:58.023Z,101071.88
2022-09-10T05:06:24.765Z,101068.41
2022-09-10T05:08:51.506Z,101065.72
2022-09-10T05:11:20.039Z,101066.53
2022-09-10T05:13:46.818Z,101069.69
2022-09-10T05:16:14.045Z,101065.41
2022-09-10T05:18:40.752Z,101061.94
2022-09-10T05:21:07.453Z,101067.63
2022-09-10T05:23:34.008Z,101064.63
2022-09-10T05:26:00.570Z,101070.00
2022-09-10T05:28:27.158Z,101067.31
2022-09-10T05:30:53.660Z,101068.09
2022-09-10T05:33:20.190Z,101067.31
2022-09-10T05:35:49.174Z,101072.38
2022-09-10T05:38:15.639Z,101070.47
2022-09-10T05:40:42.954Z,101060.22
2022-09-10T05:43:10.349Z,101072.03
2022-09-10T05:45:37.371Z,101071.72
2022-09-10T05:48:04.303Z,101069.50
2022-09-10T05:50:31.637Z,101074.88
2022-09-10T05:52:58.101Z,101072.97
2022-09-10T05:55:25.142Z,101080.72
2022-09-10T05:57:51.809Z,101072.66
2022-09-10T06:00:18.831Z,101080.41
2022-09-10T06:02:45.985Z,101081.19
2022-09-10T06:05:13.000Z,101087.03
2022-09-10T06:07:40.071Z,101083.56
2022-09-10T06:10:07.880Z,101071.72
2022-09-10T06:12:34.455Z,101075.66
2022-09-10T06:15:01.028Z,101094.13
2022-09-10T06:17:29.942Z,101093.03
2022-09-10T06:19:56.480Z,101088.44
2022-09-10T06:22:23.048Z,101096.97
2022-09-10T06:27:15.519Z,101096.66
2022-09-10T06:29:42.000Z,101094.75
2022-09-10T06:32:09.932Z,101093.63
2022-09-10T06:34:37.818Z,101097.91
2022-09-10T06:37:05.290Z,101100.59
2022-09-10T06:39:32.377Z,101098.69
2022-09-10T06:41:59.706Z,101098.38
2022-09-10T06:44:26.539Z,101100.75
2022-09-10T06:47:32.483Z,101101.53
2022-09-10T06:49:41.413Z,101110.84
2022-09-10T06:52:08.612Z,101113.22
2022-09-10T06:54:35.822Z,101115.56
2022-09-10T06:57:04.494Z,101127.09
2022-09-10T06:59:32.158Z,101126.75
2022-09-10T07:01:58.686Z,101136.09
2022-09-10T07:04:25.190Z,101133.88
2022-09-10T07:06:51.868Z,101131.69
2022-09-10T07:09:18.378Z,101137.50
2022-09-10T07:11:45.084Z,101130.72
2022-09-10T07:14:12.672Z,101130.06
2022-09-10T07:16:41.953Z,101134.81
2022-09-10T07:19:13.580Z,101136.06
2022-09-10T07:21:40.245Z,101137.00
2022-09-10T07:24:07.063Z,101139.88
2022-09-10T07:26:34.082Z,101145.38
2022-09-10T07:29:00.619Z,101140.16
2022-09-10T07:31:30.105Z,101143.78
2022-09-10T07:34:01.848Z,101148.19
2022-09-10T07:36:30.017Z,101139.97
2022-09-10T07:38:58.856Z,101150.06
2022-09-10T07:41:29.520Z,101144.06
2022-09-10T07:43:56.533Z,101147.22
2022-09-10T07:46:25.576Z,101149.59
2022-09-10T07:49:00.853Z,101155.44
2022-09-10T07:51:33.178Z,101154.78
2022-09-10T07:54:00.478Z,101158.72
2022-09-10T08:35:59.738Z,101205.53
2022-09-10T08:38:30.715Z,101209.00
2022-09-10T08:41:00.682Z,101209.47
2022-09-10T08:43:35.395Z,101216.41
2022-09-10T08:46:06.176Z,101218.78
2022-09-10T08:48:37.594Z,101215.00
2022-09-10T08:51:11.054Z,101233.47
2022-09-10T08:53:55.879Z,101224.78
2022-09-10T08:56:23.715Z,101231.41
2022-09-10T08:59:05.720Z,101236.13
2022-09-10T09:02:01.986Z,101241.97
2022-09-10T09:04:40.307Z,101243.56
2022-09-10T09:07:15.042Z,101243.69
2022-09-10T09:09:42.037Z,101252.53
2022-09-10T09:12:37.861Z,101244.94
2022-09-10T09:15:29.883Z,101246.50
2022-09-10T09:18:11.036Z,101248.09
2022-09-10T09:20:47.129Z,101259.16
2022-09-10T09:23:35.422Z,101253.78
2022-09-10T09:26:09.906Z,101256.47
2022-09-10T09:28:48.443Z,101248.56
2022-09-10T09:31:20.594Z,101251.72
2022-09-10T09:33:51.483Z,101249.50
2022-09-10T09:36:23.668Z,101253.44
2022-09-10T09:38:50.948Z,101252.47
2022-09-10T09:41:27.134Z,101257.97
2022-09-10T09:44:06.814Z,101257.00
2022-09-10T09:46:34.529Z,101261.44
2022-09-10T09:49:02.388Z,101272.81
2022-09-10T09:51:35.808Z,101262.97
2022-09-10T09:56:59.570Z,101267.44
2022-09-10T09:59:35.452Z,101262.00
2022-09-10T10:02:19.129Z,101267.69
2022-09-10T10:05:09.291Z,101266.81
2022-09-10T10:07:36.446Z,101270.69
2022-09-10T10:10:07.828Z,101270.16
2022-09-10T10:12:49.207Z,101270.75
2022-09-10T10:15:37.249Z,101275.50
2022-09-10T10:18:28.693Z,101279.75
2022-09-10T10:21:31.962Z,101274.81
2022-09-10T10:23:59.124Z,101268.44
2022-09-10T10:26:30.902Z,101277.72
2022-09-10T10:29:06.689Z,101278.88
2022-09-10T10:31:45.723Z,101278.13
2022-09-10T10:34:17.266Z,101282.19
2022-09-10T10:36:57.333Z,101276.81
2022-09-10T10:40:01.277Z,101291.38
2022-09-10T10:42:54.765Z,101296.13
2022-09-10T10:46:01.227Z,101292.97
2022-09-10T10:48:39.563Z,101298.56
2022-09-10T10:51:16.571Z,101303.94
2022-09-10T10:54:24.863Z,101307.88
2022-09-10T10:57:12.333Z,101309.94
2022-09-10T11:00:01.237Z,101313.09
2022-09-10T11:02:54.573Z,101310.63
2022-09-10T11:05:45.265Z,101307.84
2022-09-10T11:08:20.258Z,101312.78
2022-09-10T11:10:54.633Z,101320.00
2022-09-10T11:13:50.501Z,101313.72
2022-09-10T11:16:26.904Z,101320.81
2022-09-10T11:19:06.003Z,101321.19
2022-09-10T11:21:43.197Z,101326.34
2022-09-10T11:24:20.189Z,101333.78
2022-09-10T11:26:56.615Z,101329.19
2022-09-10T11:29:47.285Z,101336.59
2022-09-10T11:32:32.596Z,101340.19
2022-09-10T11:35:31.198Z,101342.34
2022-09-10T11:38:26.657Z,101343.13
2022-09-10T11:41:16.330Z,101345.59
2022-09-10T11:43:52.901Z,101341.44
2022-09-10T11:46:39.048Z,101352.00
2022-09-10T11:49:20.867Z,101346.72
2022-09-10T11:51:48.142Z,101349.53
2022-09-10T11:54:18.068Z,101353.03
2022-09-10T11:56:50.236Z,101337.63
2022-09-10T11:59:29.090Z,101339.97
2022-09-10T12:02:32.748Z,101347.97
2022-09-10T12:05:31.301Z,101342.75
2022-09-10T12:08:32.720Z,101347.06
2022-09-10T12:11:15.223Z,101355.03
2022-09-10T12:13:44.674Z,101357.84
2022-09-10T12:16:43.848Z,101358.97
2022-09-10T12:19:26.776Z,101357.16
2022-09-10T12:21:59.710Z,101363.91
2022-09-10T12:24:43.175Z,101367.41
2022-09-10T12:27:18.539Z,101366.84
2022-09-10T12:29:45.130Z,101364.03
2022-09-10T12:32:37.847Z,101358.94
2022-09-10T12:35:32.740Z,101357.84
2022-09-10T12:38:36.880Z,101373.19
2022-09-10T12:41:08.888Z,101373.44
2022-09-10T12:43:41.803Z,101388.78
2022-09-10T12:46:16.714Z,101385.97
2022-09-10T12:48:51.234Z,101387.28
2022-09-10T12:51:25.475Z,101390.34
2022-09-10T12:54:27.303Z,101396.78
2022-09-10T12:57:33.682Z,101402.22
2022-09-10T13:00:19.619Z,101401.69
2022-09-10T13:02:54.560Z,101405.41
2022-09-10T13:06:09.716Z,101412.69
2022-09-10T13:08:45.714Z,101406.19
2022-09-10T13:11:23.864Z,101408.13
2022-09-10T13:14:02.045Z,101409.91
2022-09-10T13:16:30.628Z,101409.47
2022-09-10T13:19:19.998Z,101412.84
2022-09-10T13:21:48.561Z,101412.75
2022-09-10T13:24:36.193Z,101418.22
2022-09-10T13:27:34.569Z,101426.91
2022-09-10T13:30:23.295Z,101426.13
2022-09-10T13:33:04.147Z,101434.09
2022-09-10T13:36:12.335Z,101434.13
2022-09-10T13:39:09.928Z,101425.31
2022-09-10T13:42:22.295Z,101424.16
2022-09-10T13:45:10.001Z,101434.03
2022-09-10T13:47:47.403Z,101437.19
2022-09-10T13:50:23.734Z,101451.13
2022-09-10T13:52:55.043Z,101440.94
2022-09-10T13:55:31.157Z,101443.59
2022-09-10T13:58:04.660Z,101446.00
2022-09-10T14:00:40.316Z,101455.03
2022-09-10T14:03:22.807Z,101453.31
2022-09-10T14:05:54.532Z,101452.31
2022-09-10T14:08:38.410Z,101456.41
2022-09-10T14:11:14.632Z,101455.88
2022-09-10T14:13:44.284Z,101456.25
2022-09-10T14:16:13.631Z,101463.00
2022-09-10T14:18:45.199Z,101468.41
2022-09-10T14:21:14.114Z,101460.53
2022-09-10T14:23:47.840Z,101460.53
2022-09-10T14:26:24.876Z,101462.25
2022-09-10T14:29:04.939Z,101464.72
2022-09-10T14:31:36.401Z,101467.69
2022-09-10T14:34:26.990Z,101466.94
2022-09-10T14:36:53.615Z,101478.78
2022-09-10T14:39:22.199Z,101477.47
2022-09-10T14:41:49.646Z,101475.34
2022-09-10T14:44:22.298Z,101475.03
2022-09-10T14:47:14.796Z,101482.88
2022-09-10T14:49:47.456Z,101486.81
2022-09-10T14:52:14.862Z,101480.78
2022-09-10T14:54:43.390Z,101487.72
2022-09-10T14:57:15.473Z,101488.53
2022-09-10T14:59:45.877Z,101490.25
2022-09-10T15:02:17.274Z,101491.59
2022-09-10T15:04:44.423Z,101494.84
2022-09-10T15:07:11.862Z,101494.31
2022-09-10T15:09:38.550Z,101492.97
2022-09-10T15:12:16.667Z,101489.03
2022-09-10T15:14:43.299Z,101504.91
2022-09-10T15:17:14.108Z,101502.66
2022-09-10T15:19:41.024Z,101485.66
2022-09-10T15:22:07.673Z,101501.88
2022-09-10T15:24:52.487Z,101505.69
2022-09-10T15:27:22.537Z,101512.22
2022-09-10T15:29:49.261Z,101513.34
2022-09-10T15:32:15.835Z,101519.09
2022-09-10T15:34:46.768Z,101518.41
2022-09-10T15:37:13.373Z,101524.72
2022-09-10T15:39:41.719Z,101527.53
2022-09-10T15:42:08.325Z,101525.75
2022-09-10T15:44:35.115Z,101536.66
2022-09-10T15:47:02.287Z,101537.09
2022-09-10T15:49:29.787Z,101536.31
2022-09-10T15:51:57.229Z,101538.69
2022-09-10T15:54:24.100Z,101543.75
2022-09-10T15:56:51.206Z,101537.91
2022-09-10T15:59:17.896Z,101542.16
2022-09-10T16:01:44.404Z,101544.25
2022-09-10T16:04:10.965Z,101546.72
2022-09-10T16:06:40.241Z,101548.31
2022-09-10T16:09:10.421Z,101554.50
2022-09-10T16:11:39.544Z,101547.94
2022-09-10T16:14:07.916Z,101549.53
2022-09-10T16:16:37.322Z,101554.81
2022-09-10T16:19:05.470Z,101552.91
2022-09-10T16:21:35.021Z,101551.66
2022-09-10T16:24:02.492Z,101560.91
2022-09-10T16:26:34.597Z,101568.84
2022-09-10T16:29:04.026Z,101570.66
2022-09-10T16:31:39.076Z,101565.44
2022-09-10T16:34:08.797Z,101565.81
2022-09-10T16:36:37.536Z,101575.34
2022-09-10T16:39:07.346Z,101574.81
2022-09-10T16:41:34.008Z,101577.81
2022-09-10T16:44:01.103Z,101586.63
2022-09-10T16:46:28.377Z,101593.44
2022-09-10T16:48:56.344Z,101586.03
2022-09-10T16:51:25.548Z,101595.25
2022-09-10T16:53:56.831Z,101596.25
2022-09-10T16:56:25.419Z,101606.91
2022-09-10T16:58:52.026Z,101606.00
2022-09-10T17:01:21.319Z,101611.28
2022-09-10T17:03:52.383Z,101615.78
2022-09-10T17:06:24.553Z,101615.19
2022-09-10T17:08:53.651Z,101619.34
2022-09-10T17:11:21.060Z,101621.91
2022-09-10T17:13:48.256Z,101625.16
2022-09-10T17:16:21.113Z,101627.38
2022-09-10T17:18:54.314Z,101632.50
2022-09-10T17:21:20.924Z,101631.25
2022-09-10T17:23:47.485Z,101634.63
2022-09-10T17:26:14.119Z,101636.69
2022-09-10T17:28:41.022Z,101643.88
2022-09-10T17:31:07.755Z,101635.16
2022-09-10T17:33:34.322Z,101642.78
2022-09-10T17:36:03.297Z,101643.63
2022-09-10T17:38:33.436Z,101643.53
2022-09-10T17:41:03.995Z,101647.84
2022-09-10T17:43:37.287Z,101655.47
2022-09-10T17:46:08.109Z,101661.53
2022-09-10T17:48:35.834Z,101667.56
2022-09-10T17:51:02.580Z,101667.41
2022-09-10T17:53:29.141Z,101676.47
2022-09-10T17:56:01.922Z,101679.47
2022-09-10T17:58:28.459Z,101682.84
2022-09-10T18:00:58.631Z,101684.59
2022-09-10T18:09:16.932Z,101685.44
2022-09-10T18:11:44.081Z,101684.16
2022-09-10T18:14:18.824Z,101685.16
2022-09-10T18:16:46.334Z,101689.59
2022-09-10T18:19:16.059Z,101696.41
2022-09-10T18:21:45.262Z,101695.94
2022-09-10T18:24:17.228Z,101701.97
2022-09-10T18:26:47.140Z,101706.41
2022-09-10T18:29:23.859Z,101714.00
2022-09-10T18:31:56.071Z,101715.44
2022-09-10T18:34:27.929Z,101719.06
2022-09-10T18:36:59.763Z,101717.03
2022-09-10T18:39:27.961Z,101723.06
2022-09-10T18:41:55.529Z,101733.69
2022-09-10T18:44:24.956Z,101739.38
2022-09-10T18:46:52.951Z,101745.41
2022-09-10T18:49:21.710Z,101745.25
2022-09-10T18:51:52.083Z,101756.66
2022-09-10T18:54:20.303Z,101752.22
2022-09-10T18:56:48.647Z,101757.44
2022-09-10T18:59:20.299Z,101763.00
2022-09-10T19:01:48.385Z,101776.28
2022-09-10T19:04:17.869Z,101774.25
2022-09-10T19:06:46.966Z,101779.16
2022-09-10T19:09:18.328Z,101776.59
2022-09-10T19:11:48.158Z,101779.16
2022-09-10T19:14:18.193Z,101790.53
2022-09-10T19:16:46.997Z,101788.00
2022-09-10T19:19:18.835Z,101797.81
2022-09-10T19:21:47.635Z,101791.94
2022-09-10T19:24:15.835Z,101802.53
2022-09-10T19:26:42.881Z,101798.56
2022-09-10T19:29:17.325Z,101806.16
2022-09-10T19:31:45.739Z,101803.00
2022-09-10T19:34:15.526Z,101805.22
2022-09-10T19:36:43.477Z,101812.50
2022-09-10T19:39:13.093Z,101814.69
2022-09-10T19:41:41.806Z,101821.16
2022-09-10T19:44:09.897Z,101824.50
2022-09-10T19:46:37.051Z,101827.78
2022-09-10T19:49:05.225Z,101833.78
2022-09-10T19:51:34.669Z,101840.56
2022-09-10T19:54:02.145Z,101837.72
2022-09-10T19:56:33.169Z,101841.00
2022-09-10T19:59:00.387Z,101836.25
2022-09-10T20:01:32.822Z,101839.25
2022-09-10T20:04:05.895Z,101840.66
2022-09-10T20:06:34.192Z,101843.66
2022-09-10T20:09:02.406Z,101838.09
2022-09-10T20:11:32.443Z,101837.63
2022-09-10T20:14:08.843Z,101844.09
2022-09-10T20:16:39.443Z,101851.69
2022-09-10T20:19:06.796Z,101846.63
2022-09-10T20:21:34.057Z,101856.09
2022-09-10T20:24:00.575Z,101866.06
2022-09-10T20:26:31.984Z,101854.81
2022-09-10T20:29:01.359Z,101861.00
2022-09-10T20:31:31.504Z,101854.50
2022-09-10T20:33:59.997Z,101861.78
2022-09-10T20:36:28.395Z,101862.41
2022-09-10T20:38:56.256Z,101875.66
2022-09-10T20:41:24.444Z,101864.72
2022-09-10T20:43:53.126Z,101875.00
2022-09-10T20:46:22.526Z,101877.81
2022-09-10T20:48:51.020Z,101874.63
2022-09-10T20:51:19.192Z,101877.63
2022-09-10T20:53:46.687Z,101877.91
2022-09-10T20:56:15.526Z,101881.72
2022-09-10T20:58:42.584Z,101874.75
2022-09-10T21:01:14.811Z,101875.38
2022-09-10T21:03:41.423Z,101878.66
2022-09-10T21:06:09.519Z,101883.38
2022-09-10T21:08:37.254Z,101892.03
2022-09-10T21:11:09.731Z,101884.59
2022-09-10T21:13:37.880Z,101892.94
2022-09-10T21:16:17.266Z,101888.69
2022-09-10T21:18:53.748Z,101892.59
2022-09-10T21:21:25.563Z,101898.84
2022-09-10T21:23:56.670Z,101895.50
2022-09-10T21:26:25.839Z,101902.06
2022-09-10T21:28:56.060Z,101902.63
2022-09-10T21:31:24.055Z,101909.13
2022-09-10T21:33:51.218Z,101903.56
2022-09-10T21:36:19.967Z,101909.22
2022-09-10T21:38:48.240Z,101914.41
2022-09-10T21:41:16.867Z,101907.44
2022-09-10T21:43:47.399Z,101914.72
2022-09-10T21:46:14.713Z,101909.03
2022-09-10T21:48:42.444Z,101909.03
2022-09-10T21:51:17.036Z,101909.34
2022-09-10T21:53:44.496Z,101912.03
2022-09-10T21:56:14.982Z,101914.81
2022-09-10T21:58:43.142Z,101916.00
2022-09-10T22:01:12.244Z,101927.34
2022-09-10T22:03:39.878Z,101914.84
2022-09-10T22:06:15.075Z,101926.44
2022-09-10T22:08:44.120Z,101935.41
2022-09-10T22:11:15.465Z,101934.41
2022-09-10T22:13:43.543Z,101927.75
2022-09-10T22:16:14.412Z,101936.91
2022-09-10T22:18:41.684Z,101937.78
2022-09-10T22:21:09.216Z,101937.59
2022-09-10T22:28:46.609Z,101942.84
2022-09-10T22:31:17.299Z,101950.88
2022-09-10T22:33:46.055Z,101951.72
2022-09-10T22:36:20.983Z,101945.53
2022-09-10T22:38:52.322Z,101953.28
2022-09-10T22:41:19.589Z,101952.50
2022-09-10T22:43:46.404Z,101952.78
2022-09-10T22:46:13.401Z,101948.81
2022-09-10T22:48:42.919Z,101954.47
2022-09-10T22:51:12.902Z,101953.97
2022-09-10T22:53:41.079Z,101957.25
2022-09-10T22:56:09.171Z,101961.34
2022-09-10T22:58:36.397Z,101959.72
2022-09-10T23:01:06.873Z,101960.00
2022-09-10T23:03:34.235Z,101965.97
2022-09-10T23:06:06.349Z,101969.84
2022-09-10T23:08:36.852Z,101972.91
2022-09-10T23:11:26.126Z,101972.69
2022-09-10T23:13:57.392Z,101979.44
2022-09-10T23:16:28.967Z,101985.38
2022-09-10T23:18:57.016Z,101985.16
2022-09-10T23:21:25.967Z,101977.41
2022-09-10T23:23:56.005Z,101982.47
2022-09-10T23:26:24.419Z,101980.88
2022-09-10T23:28:51.527Z,101975.78
2022-09-10T23:31:22.588Z,101987.63
2022-09-10T23:33:58.162Z,101988.19
2022-09-10T23:36:31.412Z,101988.19
2022-09-10T23:38:58.785Z,101987.41
2022-09-10T23:41:26.022Z,101982.31
2022-09-10T23:43:52.687Z,101995.72
2022-09-10T23:46:19.228Z,101999.00
2022-09-10T23:48:46.403Z,101995.59
2022-09-10T23:51:15.721Z,102007.19
2022-09-10T23:53:45.422Z,102009.09
2022-09-10T23:56:15.991Z,102003.72
2022-09-10T23:58:42.695Z,102002.13
